Time;durP1;ratioP1;P1;durP2;ratioP2;P2;SDS_P1;SDS_P2;PMS_P1;PMS_P2;Temp;Humidity;BMP_temperature;BMP_pressure;BME280_temperature;BME280_humidity;BME280_pressure;Samples;Min_cycle;Max_cycle;Signal;HPM_P1;HPM_P2
2023/05/19 00:00:51;;;;;;;;;8.50;7.25;;;;;18.65;77.08;101039.97;146642;577;45034;-71
2023/05/19 00:04:06;;;;;;;;;6.00;4.33;;;;;18.68;77.93;101037.44;146635;593;46010;-67
2023/05/19 00:07:07;;;;;;;;;4.00;4.00;;;;;18.64;77.83;101035.59;146637;566;45913;-68
2023/05/19 00:10:02;;;;;;;;;4.67;4.00;;;;;18.50;79.07;101030.00;146640;588;45020;-68
2023/05/19 00:13:05;;;;;;;;;3.67;3.67;;;;;18.39;78.17;101039.38;146642;606;46913;-69
2023/05/19 00:16:18;;;;;;;;;4.50;3.75;;;;;18.28;76.61;101027.72;146640;569;45020;-67
2023/05/19 00:19:31;;;;;;;;;4.00;4.00;;;;;18.25;77.35;101031.13;146643;573;45016;-69
2023/05/19 00:22:27;;;;;;;;;6.00;5.33;;;;;18.20;76.95;101028.41;146642;572;46020;-68
2023/05/19 00:25:42;;;;;;;;;;;;;;;;;;;;;
2023/05/19 00:28:38;;;;;;;;;6.50;3.00;;;;;18.20;76.72;101030.16;146645;572;45010;-68
2023/05/19 00:31:39;;;;;;;;;8.33;7.00;;;;;18.20;75.90;101028.41;146637;642;46914;-69
2023/05/19 00:34:49;;;;;;;;;5.33;5.00;;;;;18.18;75.53;101029.22;146646;698;45021;-68
2023/05/19 00:38:06;;;;;;;;;5.67;5.00;;;;;18.13;75.54;101026.50;146642;644;45016;-69
2023/05/19 00:41:21;;;;;;;;;6.00;5.00;;;;;15.33;75.24;100537.03;146642;569;45021;-69
2023/05/19 00:44:29;;;;;;;;;7.33;5.00;;;;;18.13;76.55;101021.25;146644;677;45016;-69
2023/05/19 00:47:43;;;;;;;;;7.25;6.25;;;;;18.14;76.60;101019.50;146644;656;45021;-67
2023/05/19 00:50:50;;;;;;;;;5.67;4.00;;;;;18.14;77.20;101014.25;146644;570;45012;-74
2023/05/19 00:53:52;;;;;;;;;8.00;8.00;;;;;18.11;77.10;101015.06;146633;566;45010;-68
2023/05/19 00:57:02;;;;;;;;;8.25;7.50;;;;;18.09;76.33;101008.00;146633;651;46012;-69
2023/05/19 00:59:57;;;;;;;;;8.50;8.50;;;;;18.09;76.59;101002.75;146635;569;45012;-71
2023/05/19 01:02:58;;;;;;;;;11.00;10.00;;;;;18.06;76.31;101007.91;146634;576;45014;-74
2023/05/19 01:06:07;;;;;;;;;10.00;7.75;;;;;15.32;76.03;100553.50;146637;600;44912;-75
2023/05/19 01:09:07;;;;;;;;;10.75;9.00;;;;;17.89;79.08;101011.00;146632;590;45015;-75
2023/05/19 01:12:05;;;;;;;;;14.00;9.00;;;;;17.84;79.70;101017.84;146636;563;45020;-73
2023/05/19 01:15:18;;;;;;;;;8.75;8.50;;;;;15.40;77.98;100597.31;146630;597;46012;-72
2023/05/19 01:18:31;;;;;;;;;5.75;5.50;;;;;17.76;78.87;101008.88;146637;675;45020;-69
2023/05/19 01:22:11;;;;;;;;;7.50;6.00;;;;;14.92;76.91;100520.97;146633;686;46014;-73
2023/05/19 01:25:56;;;;;;;;;5.75;5.00;;;;;17.77;77.26;101019.44;146631;625;46021;-73
2023/05/19 01:29:37;;;;;;;;;10.00;7.00;;;;;17.82;76.74;101010.78;146632;665;46012;-74
2023/05/19 01:33:06;;;;;;;;;7.25;6.50;;;;;17.82;76.82;101019.56;146634;615;46012;-74
2023/05/19 01:36:14;;;;;;;;;8.00;6.00;;;;;17.81;76.63;101012.53;146635;621;46012;-74
2023/05/19 01:39:13;;;;;;;;;6.50;5.50;;;;;17.80;76.87;101015.12;146636;716;45010;-73
2023/05/19 01:42:25;;;;;;;;;;;;;;;;;;;;;
2023/05/19 01:45:26;;;;;;;;;7.67;6.00;;;;;17.72;77.51;101017.50;146633;601;45020;-73
2023/05/19 01:48:23;;;;;;;;;10.67;7.00;;;;;17.64;78.11;101019.03;146618;654;46014;-70
2023/05/19 01:51:15;;;;;;;;;9.33;7.00;;;;;17.62;78.17;101015.47;146622;607;46020;-70
2023/05/19 01:54:12;;;;;;;;;9.00;7.00;;;;;17.62;79.09;101020.72;146619;647;46015;-74
2023/05/19 01:57:38;;;;;;;;;8.67;8.67;;;;;17.59;78.06;101018.03;146622;592;46020;-72
2023/05/19 02:01:14;;;;;;;;;9.00;8.33;;;;;17.50;80.02;101026.50;146619;615;46012;-70
2023/05/19 02:04:54;;;;;;;;;8.67;7.67;;;;;16.05;77.61;100798.84;146624;569;45021;-74
2023/05/19 02:08:31;;;;;;;;;7.33;6.67;;;;;14.78;78.62;100572.78;146617;569;46014;-74
2023/05/19 02:11:59;;;;;;;;;9.00;9.00;;;;;17.41;79.56;101042.84;146620;602;46048;-74
2023/05/19 02:15:25;;;;;;;;;12.00;10.25;;;;;17.35;81.34;101032.19;146617;681;46033;-74
2023/05/19 02:18:28;;;;;;;;;11.50;10.50;;;;;17.19;82.83;101027.37;146612;616;46020;-74
2023/05/19 02:21:29;;;;;;;;;12.50;11.75;;;;;17.06;81.98;101042.72;146608;598;46014;-74
2023/05/19 02:24:33;;;;;;;;;10.75;10.00;;;;;16.98;81.38;101032.88;146612;594;46027;-74
2023/05/19 02:27:28;;;;;;;;;13.75;12.00;;;;;16.95;83.20;101035.41;146611;569;46012;-74
2023/05/19 02:30:42;;;;;;;;;12.25;12.25;;;;;16.85;82.58;101035.12;146613;612;46010;-72
2023/05/19 02:33:29;;;;;;;;;12.75;11.00;;;;;16.78;85.61;101038.38;146707;564;46023;-72
2023/05/19 02:36:30;;;;;;;;;11.00;11.00;;;;;16.73;83.14;101034.72;146619;655;46016;-74
2023/05/19 02:39:34;;;;;;;;;14.50;13.75;;;;;16.70;84.16;101044.19;146621;720;46020;-77
2023/05/19 02:42:43;;;;;;;;;13.75;13.25;;;;;16.62;84.41;101033.47;146618;640;46915;-78
2023/05/19 02:45:44;;;;;;;;;12.25;11.75;;;;;16.54;83.85;101045.44;146623;742;46010;-78
2023/05/19 02:48:53;;;;;;;;;11.00;10.50;;;;;16.55;83.01;101044.59;146617;636;46017;-77
2023/05/19 02:51:57;;;;;;;;;12.25;8.50;;;;;16.55;82.48;101048.09;146623;577;46020;-78
2023/05/19 02:54:59;;;;;;;;;12.75;10.00;;;;;16.57;82.95;101050.75;146622;644;46016;-77
2023/05/19 02:58:10;;;;;;;;;9.75;9.75;;;;;16.60;81.81;101053.47;146616;578;47010;-79
2023/05/19 03:01:09;;;;;;;;;11.00;9.00;;;;;16.59;83.34;101057.84;146623;669;46035;-76
2023/05/19 03:04:05;;;;;;;;;11.33;8.00;;;;;16.55;82.44;101055.09;146629;710;46030;-74
2023/05/19 03:07:01;;;;;;;;;9.00;8.00;;;;;16.56;82.31;101060.34;146621;557;46016;-73
2023/05/19 03:10:07;;;;;;;;;9.75;9.75;;;;;16.64;82.00;101068.47;146627;671;46011;-74
2023/05/19 03:13:20;;;;;;;;;;;;;;;;;;;;;
2023/05/19 03:16:26;;;;;;;;;8.00;7.33;;;;;16.75;81.31;101069.72;146630;570;46020;-74
2023/05/19 03:19:36;;;;;;;;;13.67;10.00;;;;;16.79;81.33;101078.53;146625;581;46012;-73
2023/05/19 03:22:34;;;;;;;;;10.67;8.00;;;;;16.81;81.32;101075.13;146624;683;46010;-73
2023/05/19 03:25:41;;;;;;;;;8.33;7.33;;;;;16.85;80.88;101079.66;146625;626;46017;-73
2023/05/19 03:28:40;;;;;;;;;6.00;5.00;;;;;16.92;80.86;101078.13;146628;600;46020;-77
2023/05/19 03:31:41;;;;;;;;;7.33;7.00;;;;;16.99;80.80;101087.94;146621;601;46016;-77
2023/05/19 03:34:38;;;;;;;;;6.00;5.00;;;;;17.04;80.15;101078.50;146623;577;46020;-74
2023/05/19 03:37:57;;;;;;;;;6.67;5.67;;;;;15.74;78.47;100856.25;146619;636;46016;-74
2023/05/19 03:40:53;;;;;;;;;7.67;6.00;;;;;17.15;80.03;101094.53;146622;591;46021;-73
2023/05/19 03:44:07;;;;;;;;;9.00;6.00;;;;;15.78;78.17;100851.16;146619;587;46016;-74
2023/05/19 03:47:09;;;;;;;;;6.67;6.67;;;;;17.21;79.32;101094.72;146621;598;46020;-70
2023/05/19 03:50:27;;;;;;;;;8.00;7.33;;;;;17.23;77.98;101103.53;146618;575;46016;-71
2023/05/19 03:53:40;;;;;;;;;7.33;6.00;;;;;17.26;79.08;101097.50;146622;618;46015;-71
2023/05/19 03:56:53;;;;;;;;;7.00;6.00;;;;;17.28;78.33;101099.28;146618;640;46014;-73
2023/05/19 03:59:51;;;;;;;;;7.00;6.67;;;;;17.29;78.48;101101.09;146622;563;46020;-73
2023/05/19 04:02:53;;;;;;;;;7.00;7.00;;;;;17.29;78.51;101087.97;146619;651;46915;-73
2023/05/19 04:05:57;;;;;;;;;6.67;6.67;;;;;14.69;77.42;100645.56;146621;622;46020;-73
2023/05/19 04:09:05;;;;;;;;;6.67;6.00;;;;;17.10;78.67;101083.00;146620;581;46033;-73
2023/05/19 04:12:00;;;;;;;;;7.00;5.00;;;;;17.03;80.05;101084.56;146623;650;46010;-73
2023/05/19 04:14:56;;;;;;;;;7.67;6.67;;;;;16.95;80.11;101069.47;146615;570;46016;-75
2023/05/19 04:17:54;;;;;;;;;7.33;6.33;;;;;17.09;80.37;101083.84;146623;596;46021;-75
2023/05/19 04:20:50;;;;;;;;;7.67;6.00;;;;;17.22;80.05;101077.25;146620;702;46012;-74
2023/05/19 04:23:57;;;;;;;;;9.33;9.00;;;;;17.37;78.97;101075.09;146619;595;46020;-72
2023/05/19 04:27:01;;;;;;;;;9.00;6.67;;;;;17.58;77.30;101077.44;146617;580;46016;-72
2023/05/19 04:29:57;;;;;;;;;6.33;6.00;;;;;17.78;77.24;101085.88;146623;650;46010;-72
2023/05/19 04:33:04;;;;;;;;;9.00;7.00;;;;;17.95;75.77;101084.63;146618;597;46027;-72
2023/05/19 04:36:04;;;;;;;;;8.00;6.33;;;;;18.13;74.54;101083.31;146621;595;47010;-72
2023/05/19 04:39:15;;;;;;;;;9.67;9.00;;;;;18.30;72.10;101086.41;146618;620;46017;-72
2023/05/19 04:42:44;;;;;;;;;6.00;6.00;;;;;18.39;73.46;101079.62;146621;586;46020;-72
2023/05/19 04:45:42;;;;;;;;;6.33;5.33;;;;;18.42;72.95;101084.09;146621;565;46012;-72
2023/05/19 04:48:46;;;;;;;;;7.00;7.00;;;;;18.43;71.58;101084.09;146623;593;46020;-76
2023/05/19 04:51:44;;;;;;;;;5.00;4.00;;;;;18.49;72.13;101087.75;146616;602;46016;-72
2023/05/19 04:54:55;;;;;;;;;;;;;;;;;;;;;
2023/05/19 04:58:15;;;;;;;;;5.00;5.00;;;;;18.88;71.32;101086.12;146617;563;47012;-71
2023/05/19 05:01:25;;;;;;;;;7.33;5.33;;;;;19.02;69.77;101094.31;146623;596;46032;-70
2023/05/19 05:04:42;;;;;;;;;7.00;7.00;;;;;16.43;70.94;100649.91;146618;573;46037;-72
2023/05/19 05:07:54;;;;;;;;;9.33;6.33;;;;;19.10;71.04;101110.25;146620;578;49010;-70
2023/05/19 05:10:51;;;;;;;;;11.00;10.00;;;;;19.30;73.97;101118.56;146617;569;46017;-70
2023/05/19 05:13:52;;;;;;;;;8.00;8.00;;;;;19.52;73.10;101112.03;146613;625;46020;-72
2023/05/19 05:16:58;;;;;;;;;9.00;7.00;;;;;19.71;70.94;101111.56;146618;607;47012;-72
2023/05/19 05:20:05;;;;;;;;;8.75;8.50;;;;;19.85;71.15;101114.50;146620;584;46020;-72
2023/05/19 05:23:43;;;;;;;;;7.33;5.67;;;;;17.41;67.40;100675.00;146618;636;46016;-73
2023/05/19 05:27:00;;;;;;;;;;;;;;;;;;;;;
2023/05/19 05:30:19;;;;;;;;;4.33;4.33;;;;;20.13;65.98;101121.19;146618;576;46012;-72
2023/05/19 05:33:27;;;;;;;;;7.00;6.33;;;;;20.14;65.96;101115.03;146623;654;47010;-73
2023/05/19 05:36:33;;;;;;;;;8.25;7.75;;;;;19.01;66.77;100919.09;146615;741;47012;-73
2023/05/19 05:39:36;;;;;;;;;10.33;9.00;;;;;20.26;66.28;101117.91;146619;637;46021;-77
2023/05/19 05:42:44;;;;;;;;;8.00;8.00;;;;;20.32;66.29;101124.16;146619;565;46012;-76
2023/05/19 05:45:48;;;;;;;;;8.00;7.33;;;;;20.16;65.63;101131.75;146622;587;47010;-77
2023/05/19 05:48:46;;;;;;;;;6.00;6.00;;;;;19.91;66.35;101134.78;146617;617;46016;-77
2023/05/19 05:52:05;;;;;;;;;7.00;7.00;;;;;19.72;67.26;101131.78;146622;576;46020;-78
2023/05/19 05:55:25;;;;;;;;;8.00;7.00;;;;;19.79;68.50;101131.06;146619;569;46012;-78
2023/05/19 05:58:27;;;;;;;;;5.67;5.67;;;;;20.00;65.74;101146.38;146623;564;47010;-78
2023/05/19 06:01:32;;;;;;;;;6.00;5.00;;;;;19.99;66.80;101141.97;146618;651;46016;-77
2023/05/19 06:04:35;;;;;;;;;6.67;6.33;;;;;19.99;66.88;101138.44;146622;563;46010;-75
2023/05/19 06:07:47;;;;;;;;;7.00;6.67;;;;;17.56;67.06;100717.31;146618;629;46016;-75
2023/05/19 06:10:42;;;;;;;;;7.67;7.33;;;;;20.17;66.71;101154.59;146615;681;47014;-75
2023/05/19 06:13:40;;;;;;;;;8.33;7.00;;;;;20.26;65.44;101153.88;146619;580;46014;-74
2023/05/19 06:16:58;;;;;;;;;5.67;5.67;;;;;18.11;65.24;100746.50;146623;645;46020;-75
2023/05/19 06:19:59;;;;;;;;;8.00;8.00;;;;;20.64;63.85;101158.97;146616;560;47912;-71
2023/05/19 06:23:04;;;;;;;;;6.00;5.33;;;;;20.81;65.57;101167.16;146621;630;46021;-74
2023/05/19 06:26:10;;;;;;;;;7.33;7.33;;;;;20.97;63.78;101163.91;146614;573;47014;-75
2023/05/19 06:29:08;;;;;;;;;4.00;4.00;;;;;21.06;62.59;101161.44;146622;608;47010;-79
2023/05/19 06:32:29;;;;;;;;;7.67;5.67;;;;;21.13;63.02;101155.37;146614;579;47012;-75
2023/05/19 06:35:34;;;;;;;;;6.67;5.67;;;;;21.20;61.60;101149.31;146621;565;46030;-73
2023/05/19 06:38:33;;;;;;;;;4.00;4.00;;;;;21.26;62.39;101147.62;146620;604;47012;-76
2023/05/19 06:41:36;;;;;;;;;8.00;6.00;;;;;21.30;61.43;101149.44;146621;600;46020;-78
2023/05/19 06:44:39;;;;;;;;;5.00;4.33;;;;;21.32;63.06;101139.81;146615;590;46035;-77
2023/05/19 06:47:35;;;;;;;;;2.33;2.00;;;;;21.36;59.53;101134.63;146623;593;46010;-76
2023/05/19 06:50:40;;;;;;;;;4.33;3.67;;;;;21.32;63.01;101147.72;146620;584;46914;-74
2023/05/19 06:53:38;;;;;;;;;5.33;5.33;;;;;21.31;65.17;101146.84;146622;638;47014;-77
2023/05/19 06:56:37;;;;;;;;;3.33;3.33;;;;;21.51;63.20;101144.50;146616;600;46016;-75
2023/05/19 06:59:48;;;;;;;;;3.00;2.00;;;;;21.59;62.77;101141.97;146623;576;46011;-79
2023/05/19 07:02:54;;;;;;;;;5.00;4.00;;;;;21.76;63.06;101142.19;146616;582;46016;-72
2023/05/19 07:05:47;;;;;;;;;5.33;4.00;;;;;21.95;61.38;101138.87;146622;642;46010;-74
2023/05/19 07:08:41;;;;;;;;;5.00;3.00;;;;;22.11;62.32;101137.28;146616;576;46016;-73
2023/05/19 07:11:45;;;;;;;;;3.00;2.00;;;;;22.34;61.50;101141.09;146623;570;46020;-73
2023/05/19 07:14:50;;;;;;;;;3.00;3.00;;;;;22.60;60.68;101136.03;146617;570;46033;-71
2023/05/19 07:17:42;;;;;;;;;2.33;2.33;;;;;22.84;59.85;101147.69;146624;592;46010;-79
2023/05/19 07:20:54;;;;;;;;;3.33;3.33;;;;;23.05;59.65;101139.03;146611;571;48914;-71
2023/05/19 07:23:58;;;;;;;;;3.33;3.00;;;;;23.30;57.86;101140.06;146620;583;47010;-79
2023/05/19 07:27:01;;;;;;;;;4.00;3.00;;;;;23.42;56.26;101132.19;146616;589;47014;-84
2023/05/19 07:30:11;;;;;;;;;5.00;3.00;;;;;23.40;57.39;101127.81;146620;597;46021;-77
2023/05/19 07:33:02;;;;;;;;;3.33;2.67;;;;;23.34;55.35;101131.28;146700;569;45023;-74
2023/05/19 07:36:03;;;;;;;;;3.67;3.00;;;;;23.34;57.39;101133.94;146621;652;46012;-76
2023/05/19 07:38:59;;;;;;;;;2.33;2.33;;;;;23.44;55.38;101127.81;146623;666;46020;-75
2023/05/19 07:41:58;;;;;;;;;3.33;3.33;;;;;23.49;56.65;101119.91;146620;606;46014;-79
2023/05/19 07:45:10;;;;;;;;;;;;;;;;;;;;;
2023/05/19 07:48:09;;;;;;;;;4.00;4.00;;;;;23.36;54.48;101118.94;146619;587;46014;-74
2023/05/19 07:51:04;;;;;;;;;2.67;2.67;;;;;23.30;56.10;101108.31;146623;595;46012;-74
2023/05/19 07:53:57;;;;;;;;;3.00;3.00;;;;;23.40;55.11;101114.56;146621;644;46015;-75
2023/05/19 07:56:53;;;;;;;;;5.00;4.00;;;;;23.50;54.53;101104.00;146619;585;47021;-76
2023/05/19 07:59:47;;;;;;;;;3.33;3.33;;;;;23.55;54.40;101109.34;146620;576;46016;-76
2023/05/19 08:02:41;;;;;;;;;3.67;3.00;;;;;23.62;53.46;101113.78;146624;622;46020;-75
2023/05/19 08:05:34;;;;;;;;;3.00;3.00;;;;;23.65;54.10;101110.25;146617;582;46016;-78
2023/05/19 08:08:45;;;;;;;;;3.00;3.00;;;;;23.69;52.66;101105.00;146626;575;45020;-74
2023/05/19 08:11:40;;;;;;;;;4.00;3.00;;;;;23.85;53.91;101110.34;146615;613;47016;-77
2023/05/19 08:14:33;;;;;;;;;4.00;3.00;;;;;23.95;53.42;101096.25;146624;579;46020;-74
2023/05/19 08:17:28;;;;;;;;;3.00;2.67;;;;;24.13;51.41;101104.22;146621;564;47012;-74
2023/05/19 08:20:30;;;;;;;;;4.00;2.33;;;;;24.19;53.29;101106.88;146623;597;46012;-74
2023/05/19 08:23:26;;;;;;;;;2.00;2.00;;;;;24.33;52.49;101119.25;146620;619;47012;-73
2023/05/19 08:26:32;;;;;;;;;2.00;2.00;;;;;24.44;51.07;101112.25;146621;580;46010;-75
2023/05/19 08:29:24;;;;;;;;;3.00;3.00;;;;;24.54;51.80;101124.59;146615;600;46016;-74
2023/05/19 08:32:30;;;;;;;;;4.00;3.00;;;;;24.68;50.26;101121.09;146623;682;46012;-77
2023/05/19 08:35:31;;;;;;;;;3.67;3.67;;;;;24.79;53.56;101127.25;146619;624;46016;-78
2023/05/19 08:38:34;;;;;;;;;5.00;4.00;;;;;24.87;53.27;101126.38;146622;632;46020;-76
2023/05/19 08:41:31;;;;;;;;;5.00;3.33;;;;;24.81;52.36;101130.81;146619;599;46012;-74
2023/05/19 08:44:24;;;;;;;;;7.00;4.67;;;;;24.60;52.22;101124.59;146624;611;46020;-77
2023/05/19 08:47:21;;;;;;;;;4.33;4.33;;;;;24.33;53.53;101125.47;146618;627;47012;-76
2023/05/19 08:50:26;;;;;;;;;4.67;4.33;;;;;24.10;55.25;101117.47;146622;599;46020;-72
2023/05/19 08:53:38;;;;;;;;;5.00;5.00;;;;;24.01;55.56;101125.37;146619;603;46014;-75
2023/05/19 08:56:57;;;;;;;;;4.00;4.00;;;;;24.02;53.74;101124.53;146623;687;47010;-74
2023/05/19 08:59:58;;;;;;;;;5.33;3.00;;;;;24.08;52.39;101121.00;146621;633;46014;-75
2023/05/19 09:03:08;;;;;;;;;6.00;5.00;;;;;24.03;54.17;101093.63;146623;582;46012;-73
2023/05/19 09:06:04;;;;;;;;;3.67;3.00;;;;;24.20;50.22;101121.91;146620;602;46918;-68
2023/05/19 09:09:09;;;;;;;;;2.33;2.33;;;;;24.10;53.92;101127.19;146620;592;46020;-77
2023/05/19 09:12:15;;;;;;;;;5.33;5.00;;;;;24.18;55.20;101118.37;146622;599;46012;-75
2023/05/19 09:15:47;;;;;;;;;5.00;5.00;;;;;24.30;55.88;101100.69;146618;637;46020;-77
2023/05/19 09:19:06;;;;;;;;;6.00;6.00;;;;;24.55;55.49;101123.75;146619;632;47017;-73
2023/05/19 09:22:30;;;;;;;;;;;;;;;;;;;;;
2023/05/19 09:25:59;;;;;;;;;5.67;5.00;;;;;24.45;53.27;101118.44;146621;591;46017;-74
2023/05/19 09:29:13;;;;;;;;;8.33;6.00;;;;;24.48;53.71;101123.72;146623;684;46020;-73
2023/05/19 09:32:39;;;;;;;;;6.00;6.00;;;;;24.43;54.07;101121.09;146618;589;46017;-74
2023/05/19 09:35:41;;;;;;;;;6.33;4.67;;;;;24.26;53.69;101115.72;146622;592;46010;-73
2023/05/19 09:38:43;;;;;;;;;4.33;4.33;;;;;24.17;53.20;101110.41;146618;606;47016;-74
2023/05/19 09:41:57;;;;;;;;;5.00;3.33;;;;;23.95;54.29;101085.66;146624;582;46021;-74
2023/05/19 09:44:55;;;;;;;;;6.00;4.33;;;;;24.21;52.15;101112.19;146621;587;46012;-74
2023/05/19 09:48:09;;;;;;;;;6.00;5.00;;;;;24.22;54.26;101095.41;146621;636;46021;-74
2023/05/19 09:51:17;;;;;;;;;6.00;6.00;;;;;24.39;55.17;101120.19;146618;608;46014;-76
2023/05/19 09:54:20;;;;;;;;;5.00;5.00;;;;;24.22;50.90;101121.03;146625;598;46010;-72
2023/05/19 09:57:36;;;;;;;;;5.67;5.67;;;;;24.04;52.96;101120.09;146618;599;46918;-72
2023/05/19 10:00:25;;;;;;;;;7.67;5.33;;;;;23.79;53.13;101113.84;146713;566;45023;-74
2023/05/19 10:03:48;;;;;;;;;8.67;5.67;;;;;23.47;53.48;101114.59;146623;583;46016;-74
2023/05/19 10:07:04;;;;;;;;;4.33;4.33;;;;;23.48;55.70;101116.34;146631;587;46030;-74
2023/05/19 10:10:08;;;;;;;;;3.33;3.33;;;;;23.71;51.81;101107.66;146626;574;46012;-74
2023/05/19 10:13:19;;;;;;;;;3.67;3.00;;;;;24.03;50.58;101102.44;146631;598;46010;-74
2023/05/19 10:16:43;;;;;;;;;4.33;4.33;;;;;24.16;51.34;101101.59;146623;572;46035;-75
2023/05/19 10:39:12;;;;;;;;;6.00;6.00;;;;;25.02;51.24;101106.91;146629;466;45020;-78
2023/05/19 10:46:55;;;;;;;;;7.00;5.00;;;;;25.03;53.68;101111.31;146631;575;45016;-80
2023/05/19 10:51:01;;;;;;;;;5.00;5.00;;;;;24.75;53.91;101041.53;146638;682;45013;-79
2023/05/19 10:57:05;;;;;;;;;5.00;5.00;;;;;25.01;45.70;101121.03;146629;467;45020;-67
2023/05/19 11:00:16;;;;;;;;;5.00;4.00;;;;;24.61;48.95;101117.53;146619;581;47012;-67
2023/05/19 11:03:26;;;;;;;;;5.00;4.00;;;;;24.40;48.74;101126.34;146623;580;46020;-67
2023/05/19 11:06:56;;;;;;;;;3.00;3.00;;;;;21.73;48.59;100689.06;146621;646;46017;-66
2023/05/19 11:10:03;;;;;;;;;4.00;3.67;;;;;24.21;49.80;101117.50;146624;656;46010;-66
2023/05/19 11:13:05;;;;;;;;;5.33;4.00;;;;;24.45;51.04;101113.12;146620;580;46012;-67
2023/05/19 11:16:25;;;;;;;;;;;;;;;;;;;;;
2023/05/19 11:19:42;;;;;;;;;4.00;4.00;;;;;24.60;50.68;101106.06;146621;564;46016;-66
2023/05/19 11:22:38;;;;;;;;;5.67;4.33;;;;;24.76;49.11;101095.44;146626;570;46020;-66
2023/05/19 11:25:54;;;;;;;;;6.00;5.00;;;;;24.87;49.20;101091.88;146618;580;46016;-66
2023/05/19 11:28:55;;;;;;;;;3.67;3.67;;;;;24.90;46.88;101096.31;146624;582;46021;-67
2023/05/19 11:31:58;;;;;;;;;4.00;4.00;;;;;24.81;50.17;101091.91;146619;569;45016;-68
2023/05/19 11:35:10;;;;;;;;;4.33;4.00;;;;;24.83;50.67;101098.09;146624;606;46010;-67
2023/05/19 11:38:16;;;;;;;;;5.33;4.00;;;;;24.96;47.72;101087.47;146620;689;46917;-67
2023/05/19 11:41:20;;;;;;;;;3.00;2.67;;;;;25.06;49.08;101086.53;146627;571;46014;-69
2023/05/19 11:44:44;;;;;;;;;;;;;;;;;;;;;
2023/05/19 11:47:44;;;;;;;;;5.00;4.33;;;;;25.35;47.00;101090.00;146624;611;46020;-67
2023/05/19 11:50:45;;;;;;;;;7.00;5.00;;;;;25.23;46.15;101091.81;146619;601;46013;-66
2023/05/19 11:54:05;;;;;;;;;;;;;;;;;;;;;
2023/05/19 11:57:05;;;;;;;;;4.00;4.00;;;;;24.70;47.68;101083.06;146620;563;46017;-66
2023/05/19 12:00:20;;;;;;;;;4.00;4.00;;;;;24.69;47.45;101094.56;146624;565;46010;-66
2023/05/19 12:03:19;;;;;;;;;5.00;4.33;;;;;24.63;48.76;101099.88;146621;569;46012;-66
2023/05/19 12:06:27;;;;;;;;;5.33;4.00;;;;;24.72;47.75;101097.22;146623;583;46021;-67
2023/05/19 12:09:51;;;;;;;;;5.00;4.33;;;;;24.84;48.12;101091.88;146621;639;46016;-66
2023/05/19 12:13:19;;;;;;;;;3.00;3.00;;;;;23.80;51.46;100882.62;146625;687;47015;-67
2023/05/19 12:16:13;;;;;;;;;4.33;4.33;;;;;25.15;48.10;101090.97;146620;618;46018;-67
2023/05/19 12:19:10;;;;;;;;;4.00;3.00;;;;;25.17;47.07;101081.22;146618;591;47010;-67
2023/05/19 12:22:08;;;;;;;;;3.00;3.00;;;;;25.12;48.17;101081.22;146619;613;46017;-68
2023/05/19 12:25:10;;;;;;;;;5.00;5.00;;;;;25.08;47.05;101076.81;146622;575;46020;-68
2023/05/19 12:28:08;;;;;;;;;3.33;2.67;;;;;25.00;45.12;101078.59;146620;654;47014;-68
2023/05/19 12:31:01;;;;;;;;;3.00;3.00;;;;;24.84;46.65;101078.63;146624;623;46020;-68
2023/05/19 12:34:00;;;;;;;;;1.67;1.67;;;;;24.79;48.27;101069.78;146618;621;46016;-67
2023/05/19 12:37:05;;;;;;;;;3.00;3.00;;;;;24.83;48.77;101074.22;146628;572;45021;-66
2023/05/19 12:40:08;;;;;;;;;4.00;4.00;;;;;24.85;47.19;101076.84;146620;571;46016;-68
2023/05/19 12:43:03;;;;;;;;;4.33;4.33;;;;;24.64;45.30;101075.09;146624;580;46021;-67
2023/05/19 12:46:26;;;;;;;;;3.00;3.00;;;;;24.34;46.33;101078.66;146621;573;46016;-68
2023/05/19 12:49:19;;;;;;;;;3.00;3.00;;;;;24.13;46.74;101077.72;146626;569;46010;-67
2023/05/19 12:52:37;;;;;;;;;4.00;3.00;;;;;23.93;48.62;101072.41;146619;637;47012;-67
2023/05/19 12:56:07;;;;;;;;;3.00;3.00;;;;;23.87;46.53;101071.53;146622;586;46010;-69
2023/05/19 12:59:15;;;;;;;;;2.00;2.00;;;;;23.84;47.68;101068.88;146619;595;47014;-67
2023/05/19 13:02:15;;;;;;;;;1.33;0.00;;;;;23.93;48.58;101064.47;146625;615;45020;-68
2023/05/19 13:05:18;;;;;;;;;5.00;5.00;;;;;24.14;49.63;101066.28;146618;630;47012;-68
2023/05/19 13:08:24;;;;;;;;;5.00;4.00;;;;;24.35;48.91;101062.72;146626;578;46020;-66
2023/05/19 13:11:20;;;;;;;;;4.00;4.00;;;;;24.51;47.07;101078.66;146621;599;46016;-68
2023/05/19 13:14:30;;;;;;;;;4.00;4.00;;;;;24.56;47.68;101067.19;146622;571;47021;-66
2023/05/19 13:17:36;;;;;;;;;4.33;3.00;;;;;24.60;46.42;101074.22;146619;569;46014;-66
2023/05/19 13:20:53;;;;;;;;;2.00;2.00;;;;;24.63;46.71;101076.00;146623;624;46020;-66
2023/05/19 13:23:53;;;;;;;;;3.67;3.00;;;;;24.64;45.63;101076.03;146619;570;46028;-67
2023/05/19 13:26:54;;;;;;;;;4.67;4.00;;;;;24.67;46.53;101077.75;146624;639;47011;-68
2023/05/19 13:29:51;;;;;;;;;3.00;3.00;;;;;24.67;46.61;101075.09;146616;670;46016;-66
2023/05/19 13:32:55;;;;;;;;;2.00;2.00;;;;;24.62;44.95;101077.78;146625;657;46029;-66
2023/05/19 13:36:09;;;;;;;;;3.33;3.00;;;;;24.59;45.65;101080.44;146618;591;46017;-67
2023/05/19 13:39:13;;;;;;;;;4.00;4.00;;;;;24.54;44.91;101081.31;146623;639;46020;-66
2023/05/19 13:42:12;;;;;;;;;3.33;3.00;;;;;24.46;44.44;101085.75;146619;620;46017;-66
2023/05/19 13:45:31;;;;;;;;;4.00;3.00;;;;;24.43;45.48;101081.31;146623;656;46020;-66
2023/05/19 13:49:00;;;;;;;;;5.00;4.00;;;;;24.53;45.14;101084.84;146616;571;46017;-67
2023/05/19 13:51:56;;;;;;;;;3.00;3.00;;;;;24.61;45.09;101089.28;146626;620;46014;-66
2023/05/19 13:54:49;;;;;;;;;3.33;3.33;;;;;24.57;42.17;101081.31;146622;571;46016;-68
2023/05/19 13:58:15;;;;;;;;;2.67;2.67;;;;;23.37;43.62;100895.81;146626;607;46010;-66
2023/05/19 14:01:19;;;;;;;;;4.00;4.00;;;;;24.42;45.37;101077.81;146638;555;46012;-67
2023/05/19 14:04:41;;;;;;;;;1.00;0.00;;;;;24.39;47.18;101056.56;146642;646;45021;-66
2023/05/19 14:08:02;;;;;;;;;;;;;;;;;;;;;
2023/05/19 14:11:16;;;;;;;;;1.33;1.33;;;;;24.46;44.43;101078.69;146643;570;45020;-67
2023/05/19 14:14:22;;;;;;;;;3.67;3.00;;;;;24.43;43.62;101082.22;146639;588;45016;-66
2023/05/19 14:17:31;;;;;;;;;;;;;;;;;;;;;
2023/05/19 14:20:32;;;;;;;;;3.67;3.67;;;;;24.54;45.06;101082.19;146638;615;45016;-66
2023/05/19 14:23:45;;;;;;;;;3.33;2.33;;;;;24.63;43.30;101073.34;146644;605;45029;-67
2023/05/19 14:26:48;;;;;;;;;;;;;;;;;;;;;
2023/05/19 14:29:54;;;;;;;;;3.67;3.67;;;;;24.69;41.20;101068.03;146642;566;45010;-65
2023/05/19 14:32:54;;;;;;;;;3.00;3.00;;;;;24.72;44.09;101067.16;146642;580;45016;-66
2023/05/19 14:36:08;;;;;;;;;;;;;;;;;;;;;
2023/05/19 14:39:15;;;;;;;;;3.00;2.00;;;;;24.56;41.21;101016.81;146643;698;45012;-66
2023/05/19 14:42:24;;;;;;;;;5.00;4.67;;;;;24.84;41.28;101053.87;146643;586;45031;-66
2023/05/19 14:45:19;;;;;;;;;3.33;3.00;;;;;24.91;40.49;101060.06;146643;625;45012;-66
2023/05/19 14:48:15;;;;;;;;;5.33;4.00;;;;;24.98;41.73;101065.31;146646;583;45011;-66
2023/05/19 14:51:08;;;;;;;;;3.00;3.00;;;;;25.09;41.97;101065.31;146642;565;45916;-67
2023/05/19 14:54:03;;;;;;;;;3.00;3.00;;;;;25.15;40.68;101067.97;146646;624;45028;-68
2023/05/19 14:57:08;;;;;;;;;;;;;;;;;;;;;
2023/05/19 15:00:04;;;;;;;;;5.00;4.00;;;;;25.10;38.67;101077.69;146628;629;46010;-67
2023/05/19 15:03:19;;;;;;;;;3.00;2.00;;;;;24.94;38.34;101063.56;146621;570;46016;-66
2023/05/19 15:06:39;;;;;;;;;4.00;3.00;;;;;24.84;44.00;101059.19;146624;627;46014;-66
2023/05/19 15:09:45;;;;;;;;;3.67;3.00;;;;;24.81;39.99;101046.81;146620;571;46016;-67
2023/05/19 15:12:40;;;;;;;;;5.00;4.33;;;;;24.78;40.15;101043.28;146618;633;47010;-67
2023/05/19 15:15:47;;;;;;;;;5.00;4.00;;;;;24.67;38.30;101040.63;146620;680;46023;-65
2023/05/19 15:18:50;;;;;;;;;5.00;4.00;;;;;24.47;38.80;101042.44;146623;598;46010;-66